sensor_id;sensor_type;location;lat;lon;timestamp;temperature;humidity
17954;DHT22;9102;53.548;9.926;2024-03-06T00:01:55;5.60;99.90
17954;DHT22;9102;53.548;9.926;2024-03-06T00:04:23;5.60;99.90
17954;DHT22;9102;53.548;9.926;2024-03-06T00:06:50;5.60;99.90
17954;DHT22;9102;53.548;9.926;2024-03-06T00:09:19;5.50;99.90
17954;DHT22;9102;53.548;9.926;2024-03-06T00:11:46;5.60;99.90
17954;DHT22;9102;53.548;9.926;2024-03-06T00:14:13;5.60;99.90
17954;DHT22;9102;53.548;9.926;2024-03-06T00:16:42;5.50;99.90
17954;DHT22;9102;53.548;9.926;2024-03-06T00:19:10;5.50;99.90
17954;DHT22;9102;53.548;9.926;2024-03-06T00:21:39;5.60;99.90
17954;DHT22;9102;53.548;9.926;2024-03-06T00:24:07;5.50;99.90
17954;DHT22;9102;53.548;9.926;2024-03-06T00:26:34;5.50;99.90
17954;DHT22;9102;53.548;9.926;2024-03-06T00:29:01;5.50;99.90
17954;DHT22;9102;53.548;9.926;2024-03-06T00:31:28;5.50;99.90
17954;DHT22;9102;53.548;9.926;2024-03-06T00:33:55;5.50;99.90
17954;DHT22;9102;53.548;9.926;2024-03-06T00:36:22;5.60;99.90
17954;DHT22;9102;53.548;9.926;2024-03-06T00:38:50;5.50;99.90
17954;DHT22;9102;53.548;9.926;2024-03-06T00:41:17;5.50;99.90
17954;DHT22;9102;53.548;9.926;2024-03-06T00:43:44;5.50;99.90
17954;DHT22;9102;53.548;9.926;2024-03-06T00:46:12;5.50;99.90
17954;DHT22;9102;53.548;9.926;2024-03-06T00:48:39;5.50;99.90
17954;DHT22;9102;53.548;9.926;2024-03-06T00:51:05;5.50;99.90
17954;DHT22;9102;53.548;9.926;2024-03-06T00:53:32;5.50;99.90
17954;DHT22;9102;53.548;9.926;2024-03-06T00:56:02;5.50;99.90
17954;DHT22;9102;53.548;9.926;2024-03-06T00:58:29;5.40;99.90
17954;DHT22;9102;53.548;9.926;2024-03-06T01:00:56;5.40;99.90
17954;DHT22;9102;53.548;9.926;2024-03-06T01:03:23;5.40;99.90
17954;DHT22;9102;53.548;9.926;2024-03-06T01:05:50;5.40;99.90
17954;DHT22;9102;53.548;9.926;2024-03-06T01:08:17;5.50;99.90
17954;DHT22;9102;53.548;9.926;2024-03-06T01:10:44;5.50;99.90
17954;DHT22;9102;53.548;9.926;2024-03-06T01:13:13;5.50;99.90
17954;DHT22;9102;53.548;9.926;2024-03-06T01:15:39;5.50;99.90
17954;DHT22;9102;53.548;9.926;2024-03-06T01:18:06;5.50;99.90
17954;DHT22;9102;53.548;9.926;2024-03-06T01:20:34;5.40;99.90
17954;DHT22;9102;53.548;9.926;2024-03-06T01:23:01;5.40;99.90
17954;DHT22;9102;53.548;9.926;2024-03-06T01:25:30;5.30;99.90
17954;DHT22;9102;53.548;9.926;2024-03-06T01:27:57;5.40;99.90
17954;DHT22;9102;53.548;9.926;2024-03-06T01:30:26;5.40;99.90
17954;DHT22;9102;53.548;9.926;2024-03-06T01:32:53;5.40;99.90
17954;DHT22;9102;53.548;9.926;2024-03-06T01:35:20;5.40;99.90
17954;DHT22;9102;53.548;9.926;2024-03-06T01:37:47;5.40;99.90
17954;DHT22;9102;53.548;9.926;2024-03-06T01:40:14;5.40;99.90
17954;DHT22;9102;53.548;9.926;2024-03-06T01:42:40;5.40;99.90
17954;DHT22;9102;53.548;9.926;2024-03-06T01:45:08;5.40;99.90
17954;DHT22;9102;53.548;9.926;2024-03-06T01:47:37;5.40;99.90
17954;DHT22;9102;53.548;9.926;2024-03-06T01:50:06;5.40;99.90
17954;DHT22;9102;53.548;9.926;2024-03-06T01:52:35;5.40;99.90
17954;DHT22;9102;53.548;9.926;2024-03-06T01:55:02;5.40;99.90
17954;DHT22;9102;53.548;9.926;2024-03-06T01:57:31;5.40;99.90
17954;DHT22;9102;53.548;9.926;2024-03-06T01:59:58;5.40;99.90
17954;DHT22;9102;53.548;9.926;2024-03-06T02:02:25;5.40;99.90
17954;DHT22;9102;53.548;9.926;2024-03-06T02:04:54;5.30;99.90
17954;DHT22;9102;53.548;9.926;2024-03-06T02:07:24;5.40;99.90
17954;DHT22;9102;53.548;9.926;2024-03-06T02:09:50;5.40;99.90
17954;DHT22;9102;53.548;9.926;2024-03-06T02:12:18;5.40;99.90
17954;DHT22;9102;53.548;9.926;2024-03-06T02:14:45;5.30;99.90
17954;DHT22;9102;53.548;9.926;2024-03-06T02:17:11;5.40;99.90
17954;DHT22;9102;53.548;9.926;2024-03-06T02:19:39;5.40;99.90
17954;DHT22;9102;53.548;9.926;2024-03-06T02:22:08;5.40;99.90
17954;DHT22;9102;53.548;9.926;2024-03-06T02:24:35;5.40;99.90
17954;DHT22;9102;53.548;9.926;2024-03-06T02:27:02;5.40;99.90
17954;DHT22;9102;53.548;9.926;2024-03-06T02:29:31;5.30;99.90
17954;DHT22;9102;53.548;9.926;2024-03-06T02:31:58;5.30;99.90
17954;DHT22;9102;53.548;9.926;2024-03-06T02:34:25;5.40;99.90
17954;DHT22;9102;53.548;9.926;2024-03-06T02:36:51;5.30;99.90
17954;DHT22;9102;53.548;9.926;2024-03-06T02:39:20;5.30;99.90
17954;DHT22;9102;53.548;9.926;2024-03-06T02:41:47;5.30;99.90
17954;DHT22;9102;53.548;9.926;2024-03-06T02:44:14;5.30;99.90
17954;DHT22;9102;53.548;9.926;2024-03-06T02:46:46;5.30;99.90
17954;DHT22;9102;53.548;9.926;2024-03-06T02:49:14;5.30;99.90
17954;DHT22;9102;53.548;9.926;2024-03-06T02:51:41;5.20;99.90
17954;DHT22;9102;53.548;9.926;2024-03-06T02:54:08;5.20;99.90
17954;DHT22;9102;53.548;9.926;2024-03-06T02:56:36;5.10;99.90
17954;DHT22;9102;53.548;9.926;2024-03-06T02:59:03;5.10;99.90
17954;DHT22;9102;53.548;9.926;2024-03-06T03:01:30;5.00;99.90
17954;DHT22;9102;53.548;9.926;2024-03-06T03:03:57;5.00;99.90
17954;DHT22;9102;53.548;9.926;2024-03-06T03:06:24;4.90;99.90
17954;DHT22;9102;53.548;9.926;2024-03-06T03:08:51;4.90;99.90
17954;DHT22;9102;53.548;9.926;2024-03-06T03:11:18;4.90;99.90
17954;DHT22;9102;53.548;9.926;2024-03-06T03:13:46;4.90;99.90
17954;DHT22;9102;53.548;9.926;2024-03-06T03:16:17;4.90;99.90
17954;DHT22;9102;53.548;9.926;2024-03-06T03:18:45;4.80;99.90
17954;DHT22;9102;53.548;9.926;2024-03-06T03:21:13;4.80;99.90
17954;DHT22;9102;53.548;9.926;2024-03-06T03:23:40;4.70;99.90
17954;DHT22;9102;53.548;9.926;2024-03-06T03:26:08;4.70;99.90
17954;DHT22;9102;53.548;9.926;2024-03-06T03:28:37;4.70;99.90
17954;DHT22;9102;53.548;9.926;2024-03-06T03:31:06;4.60;99.90
17954;DHT22;9102;53.548;9.926;2024-03-06T03:33:34;4.60;99.90
17954;DHT22;9102;53.548;9.926;2024-03-06T03:36:04;4.60;99.90
17954;DHT22;9102;53.548;9.926;2024-03-06T03:38:31;4.60;99.90
17954;DHT22;9102;53.548;9.926;2024-03-06T03:40:58;4.50;99.90
17954;DHT22;9102;53.548;9.926;2024-03-06T03:43:25;4.50;99.90
17954;DHT22;9102;53.548;9.926;2024-03-06T03:45:51;4.50;99.90
17954;DHT22;9102;53.548;9.926;2024-03-06T03:48:20;4.50;99.90
17954;DHT22;9102;53.548;9.926;2024-03-06T03:50:46;4.50;99.90
17954;DHT22;9102;53.548;9.926;2024-03-06T03:53:13;4.40;99.90
17954;DHT22;9102;53.548;9.926;2024-03-06T03:55:41;4.30;99.90
17954;DHT22;9102;53.548;9.926;2024-03-06T03:58:08;4.40;99.90
17954;DHT22;9102;53.548;9.926;2024-03-06T04:00:35;4.40;99.90
17954;DHT22;9102;53.548;9.926;2024-03-06T04:03:04;4.40;99.90
17954;DHT22;9102;53.548;9.926;2024-03-06T04:05:33;4.40;99.90
17954;DHT22;9102;53.548;9.926;2024-03-06T04:08:00;4.40;99.90
17954;DHT22;9102;53.548;9.926;2024-03-06T04:10:31;4.30;99.90
17954;DHT22;9102;53.548;9.926;2024-03-06T04:12:58;4.30;99.90
17954;DHT22;9102;53.548;9.926;2024-03-06T04:15:25;4.30;99.90
17954;DHT22;9102;53.548;9.926;2024-03-06T04:17:52;4.30;99.90
17954;DHT22;9102;53.548;9.926;2024-03-06T04:20:19;4.40;99.90
17954;DHT22;9102;53.548;9.926;2024-03-06T04:22:47;4.20;99.90
17954;DHT22;9102;53.548;9.926;2024-03-06T04:25:16;4.20;99.90
17954;DHT22;9102;53.548;9.926;2024-03-06T04:27:43;4.20;99.90
17954;DHT22;9102;53.548;9.926;2024-03-06T04:30:11;4.20;99.90
17954;DHT22;9102;53.548;9.926;2024-03-06T04:32:38;4.20;99.90
17954;DHT22;9102;53.548;9.926;2024-03-06T04:35:06;4.20;99.90
17954;DHT22;9102;53.548;9.926;2024-03-06T04:37:33;4.20;99.90
17954;DHT22;9102;53.548;9.926;2024-03-06T04:40:01;4.20;99.90
17954;DHT22;9102;53.548;9.926;2024-03-06T04:42:33;4.20;99.90
17954;DHT22;9102;53.548;9.926;2024-03-06T04:45:01;4.20;99.90
17954;DHT22;9102;53.548;9.926;2024-03-06T04:47:28;4.30;99.90
17954;DHT22;9102;53.548;9.926;2024-03-06T04:49:55;4.10;99.90
17954;DHT22;9102;53.548;9.926;2024-03-06T04:52:23;4.10;99.90
17954;DHT22;9102;53.548;9.926;2024-03-06T04:54:50;4.10;99.90
17954;DHT22;9102;53.548;9.926;2024-03-06T04:57:18;4.10;99.90
17954;DHT22;9102;53.548;9.926;2024-03-06T04:59:44;4.10;99.90
17954;DHT22;9102;53.548;9.926;2024-03-06T05:02:11;4.20;99.90
17954;DHT22;9102;53.548;9.926;2024-03-06T05:04:38;4.10;99.90
17954;DHT22;9102;53.548;9.926;2024-03-06T05:07:05;4.10;99.90
17954;DHT22;9102;53.548;9.926;2024-03-06T05:09:32;4.10;99.90
17954;DHT22;9102;53.548;9.926;2024-03-06T05:12:00;4.10;99.90
17954;DHT22;9102;53.548;9.926;2024-03-06T05:14:29;4.00;99.90
17954;DHT22;9102;53.548;9.926;2024-03-06T05:16:55;4.00;99.90
17954;DHT22;9102;53.548;9.926;2024-03-06T05:19:22;4.10;99.90
17954;DHT22;9102;53.548;9.926;2024-03-06T05:21:49;4.10;99.90
17954;DHT22;9102;53.548;9.926;2024-03-06T05:24:16;4.00;99.90
17954;DHT22;9102;53.548;9.926;2024-03-06T05:26:43;4.00;99.90
17954;DHT22;9102;53.548;9.926;2024-03-06T05:29:10;4.00;99.90
17954;DHT22;9102;53.548;9.926;2024-03-06T05:31:38;4.00;99.90
17954;DHT22;9102;53.548;9.926;2024-03-06T05:34:05;4.00;99.90
17954;DHT22;9102;53.548;9.926;2024-03-06T05:36:32;4.00;99.90
17954;DHT22;9102;53.548;9.926;2024-03-06T05:38:59;4.00;99.90
17954;DHT22;9102;53.548;9.926;2024-03-06T05:41:26;4.00;99.90
17954;DHT22;9102;53.548;9.926;2024-03-06T05:43:53;4.00;99.90
17954;DHT22;9102;53.548;9.926;2024-03-06T05:46:19;3.90;99.90
17954;DHT22;9102;53.548;9.926;2024-03-06T05:48:47;3.90;99.90
17954;DHT22;9102;53.548;9.926;2024-03-06T05:51:15;4.00;99.90
17954;DHT22;9102;53.548;9.926;2024-03-06T05:53:42;4.00;99.90
17954;DHT22;9102;53.548;9.926;2024-03-06T05:56:09;4.00;99.90
17954;DHT22;9102;53.548;9.926;2024-03-06T05:58:36;4.00;99.90
17954;DHT22;9102;53.548;9.926;2024-03-06T06:01:03;4.00;99.90
17954;DHT22;9102;53.548;9.926;2024-03-06T06:03:30;3.90;99.90
17954;DHT22;9102;53.548;9.926;2024-03-06T06:05:58;4.00;99.90
17954;DHT22;9102;53.548;9.926;2024-03-06T06:08:25;4.10;99.90
17954;DHT22;9102;53.548;9.926;2024-03-06T06:10:52;4.00;99.90
17954;DHT22;9102;53.548;9.926;2024-03-06T06:13:21;4.00;99.90
17954;DHT22;9102;53.548;9.926;2024-03-06T06:15:48;4.00;99.90
17954;DHT22;9102;53.548;9.926;2024-03-06T06:18:14;4.10;99.90
17954;DHT22;9102;53.548;9.926;2024-03-06T06:20:41;4.10;99.90
17954;DHT22;9102;53.548;9.926;2024-03-06T06:23:10;4.10;99.90
17954;DHT22;9102;53.548;9.926;2024-03-06T06:25:36;4.10;99.90
17954;DHT22;9102;53.548;9.926;2024-03-06T06:28:04;4.10;99.90
17954;DHT22;9102;53.548;9.926;2024-03-06T06:30:31;4.20;99.90
17954;DHT22;9102;53.548;9.926;2024-03-06T06:32:58;4.20;99.90
17954;DHT22;9102;53.548;9.926;2024-03-06T06:35:25;4.20;99.90
17954;DHT22;9102;53.548;9.926;2024-03-06T06:37:52;4.10;99.90
17954;DHT22;9102;53.548;9.926;2024-03-06T06:40:21;4.20;99.90
17954;DHT22;9102;53.548;9.926;2024-03-06T06:42:49;4.20;99.90
17954;DHT22;9102;53.548;9.926;2024-03-06T06:45:16;4.20;99.90
17954;DHT22;9102;53.548;9.926;2024-03-06T06:47:44;4.30;99.90
17954;DHT22;9102;53.548;9.926;2024-03-06T06:50:11;4.30;99.90
17954;DHT22;9102;53.548;9.926;2024-03-06T06:52:38;4.40;99.90
17954;DHT22;9102;53.548;9.926;2024-03-06T06:55:05;4.40;99.90
17954;DHT22;9102;53.548;9.926;2024-03-06T06:57:33;4.50;99.90
17954;DHT22;9102;53.548;9.926;2024-03-06T07:00:00;4.50;99.90
17954;DHT22;9102;53.548;9.926;2024-03-06T07:02:28;4.60;99.90
17954;DHT22;9102;53.548;9.926;2024-03-06T07:04:56;4.60;99.90
17954;DHT22;9102;53.548;9.926;2024-03-06T07:07:22;4.60;99.90
17954;DHT22;9102;53.548;9.926;2024-03-06T07:09:50;4.70;99.90
17954;DHT22;9102;53.548;9.926;2024-03-06T07:12:17;4.60;99.90
17954;DHT22;9102;53.548;9.926;2024-03-06T07:14:46;4.70;99.90
17954;DHT22;9102;53.548;9.926;2024-03-06T07:17:13;4.70;99.90
17954;DHT22;9102;53.548;9.926;2024-03-06T07:19:40;4.80;99.90
17954;DHT22;9102;53.548;9.926;2024-03-06T07:22:07;4.80;99.90
17954;DHT22;9102;53.548;9.926;2024-03-06T07:24:36;4.90;99.90
17954;DHT22;9102;53.548;9.926;2024-03-06T07:27:03;4.80;99.90
17954;DHT22;9102;53.548;9.926;2024-03-06T07:29:30;4.80;99.90
17954;DHT22;9102;53.548;9.926;2024-03-06T07:31:58;4.90;99.90
17954;DHT22;9102;53.548;9.926;2024-03-06T07:34:26;5.00;99.90
17954;DHT22;9102;53.548;9.926;2024-03-06T07:36:53;5.20;99.90
17954;DHT22;9102;53.548;9.926;2024-03-06T07:39:20;5.20;99.90
17954;DHT22;9102;53.548;9.926;2024-03-06T07:41:47;5.20;99.90
17954;DHT22;9102;53.548;9.926;2024-03-06T07:44:14;5.20;99.90
17954;DHT22;9102;53.548;9.926;2024-03-06T07:46:40;5.30;99.90
17954;DHT22;9102;53.548;9.926;2024-03-06T07:49:09;5.20;99.90
17954;DHT22;9102;53.548;9.926;2024-03-06T07:51:35;5.30;99.90
17954;DHT22;9102;53.548;9.926;2024-03-06T07:54:02;5.30;99.90
17954;DHT22;9102;53.548;9.926;2024-03-06T07:56:30;5.20;99.90
17954;DHT22;9102;53.548;9.926;2024-03-06T07:58:56;5.30;99.90
17954;DHT22;9102;53.548;9.926;2024-03-06T08:01:23;5.40;99.90
17954;DHT22;9102;53.548;9.926;2024-03-06T08:03:51;5.40;99.90
17954;DHT22;9102;53.548;9.926;2024-03-06T08:06:19;5.40;99.90
17954;DHT22;9102;53.548;9.926;2024-03-06T08:08:46;5.40;99.90
17954;DHT22;9102;53.548;9.926;2024-03-06T08:11:13;5.40;99.90
17954;DHT22;9102;53.548;9.926;2024-03-06T08:13:40;5.30;99.90
17954;DHT22;9102;53.548;9.926;2024-03-06T08:16:08;5.50;99.90
17954;DHT22;9102;53.548;9.926;2024-03-06T08:18:36;5.60;99.90
17954;DHT22;9102;53.548;9.926;2024-03-06T08:21:03;5.50;99.90
17954;DHT22;9102;53.548;9.926;2024-03-06T08:23:33;5.70;99.90
17954;DHT22;9102;53.548;9.926;2024-03-06T08:25:59;5.70;99.90
17954;DHT22;9102;53.548;9.926;2024-03-06T08:28:26;5.80;99.90
17954;DHT22;9102;53.548;9.926;2024-03-06T08:30:53;5.90;99.90
17954;DHT22;9102;53.548;9.926;2024-03-06T08:33:20;6.00;99.90
17954;DHT22;9102;53.548;9.926;2024-03-06T08:35:48;6.00;99.90
17954;DHT22;9102;53.548;9.926;2024-03-06T08:38:14;6.00;99.90
17954;DHT22;9102;53.548;9.926;2024-03-06T08:40:44;5.90;99.90
17954;DHT22;9102;53.548;9.926;2024-03-06T08:43:12;5.90;99.90
17954;DHT22;9102;53.548;9.926;2024-03-06T08:45:40;5.90;99.90
17954;DHT22;9102;53.548;9.926;2024-03-06T08:48:07;6.00;99.90
17954;DHT22;9102;53.548;9.926;2024-03-06T08:50:34;6.10;99.90
17954;DHT22;9102;53.548;9.926;2024-03-06T08:53:01;6.00;99.90
17954;DHT22;9102;53.548;9.926;2024-03-06T08:55:28;6.10;99.90
17954;DHT22;9102;53.548;9.926;2024-03-06T08:57:56;6.30;99.90
17954;DHT22;9102;53.548;9.926;2024-03-06T09:00:24;6.30;99.90
17954;DHT22;9102;53.548;9.926;2024-03-06T09:02:52;6.10;99.90
17954;DHT22;9102;53.548;9.926;2024-03-06T09:05:19;6.30;99.90
17954;DHT22;9102;53.548;9.926;2024-03-06T09:07:47;6.20;99.90
17954;DHT22;9102;53.548;9.926;2024-03-06T09:10:14;6.10;99.90
17954;DHT22;9102;53.548;9.926;2024-03-06T09:12:41;6.10;99.90
17954;DHT22;9102;53.548;9.926;2024-03-06T09:15:09;6.10;99.90
17954;DHT22;9102;53.548;9.926;2024-03-06T09:17:37;6.30;99.90
17954;DHT22;9102;53.548;9.926;2024-03-06T09:20:05;6.40;99.90
17954;DHT22;9102;53.548;9.926;2024-03-06T09:22:36;6.40;99.90
17954;DHT22;9102;53.548;9.926;2024-03-06T09:25:04;6.50;99.90
17954;DHT22;9102;53.548;9.926;2024-03-06T09:27:31;6.50;99.90
17954;DHT22;9102;53.548;9.926;2024-03-06T09:29:58;6.40;99.90
17954;DHT22;9102;53.548;9.926;2024-03-06T09:32:26;6.60;99.90
17954;DHT22;9102;53.548;9.926;2024-03-06T09:34:53;6.60;99.90
17954;DHT22;9102;53.548;9.926;2024-03-06T09:37:20;6.50;99.90
17954;DHT22;9102;53.548;9.926;2024-03-06T09:39:46;6.40;99.90
17954;DHT22;9102;53.548;9.926;2024-03-06T09:42:13;6.50;99.90
17954;DHT22;9102;53.548;9.926;2024-03-06T09:44:41;6.50;99.90
17954;DHT22;9102;53.548;9.926;2024-03-06T09:47:12;6.50;99.90
17954;DHT22;9102;53.548;9.926;2024-03-06T09:49:41;6.50;99.90
17954;DHT22;9102;53.548;9.926;2024-03-06T09:52:09;6.60;99.90
17954;DHT22;9102;53.548;9.926;2024-03-06T09:54:37;6.70;99.90
17954;DHT22;9102;53.548;9.926;2024-03-06T09:57:05;6.80;99.90
17954;DHT22;9102;53.548;9.926;2024-03-06T09:59:32;7.00;99.90
17954;DHT22;9102;53.548;9.926;2024-03-06T10:02:01;7.20;99.90
17954;DHT22;9102;53.548;9.926;2024-03-06T10:04:33;7.30;99.90
17954;DHT22;9102;53.548;9.926;2024-03-06T10:07:04;7.30;99.90
17954;DHT22;9102;53.548;9.926;2024-03-06T10:09:33;7.30;99.90
17954;DHT22;9102;53.548;9.926;2024-03-06T10:12:04;7.40;99.90
17954;DHT22;9102;53.548;9.926;2024-03-06T10:14:32;7.30;99.90
17954;DHT22;9102;53.548;9.926;2024-03-06T10:17:00;7.20;99.90
17954;DHT22;9102;53.548;9.926;2024-03-06T10:19:27;7.10;99.90
17954;DHT22;9102;53.548;9.926;2024-03-06T10:21:55;7.20;99.90
17954;DHT22;9102;53.548;9.926;2024-03-06T10:24:25;7.40;99.90
17954;DHT22;9102;53.548;9.926;2024-03-06T10:26:54;7.60;99.90
17954;DHT22;9102;53.548;9.926;2024-03-06T10:29:24;7.70;99.90
17954;DHT22;9102;53.548;9.926;2024-03-06T10:31:52;7.60;99.90
17954;DHT22;9102;53.548;9.926;2024-03-06T10:34:20;7.60;99.90
17954;DHT22;9102;53.548;9.926;2024-03-06T10:36:50;7.80;99.90
17954;DHT22;9102;53.548;9.926;2024-03-06T10:39:20;7.80;99.90
17954;DHT22;9102;53.548;9.926;2024-03-06T10:41:52;7.70;99.90
17954;DHT22;9102;53.548;9.926;2024-03-06T10:44:21;7.50;99.90
17954;DHT22;9102;53.548;9.926;2024-03-06T10:46:55;7.50;99.90
17954;DHT22;9102;53.548;9.926;2024-03-06T10:49:24;7.80;99.90
17954;DHT22;9102;53.548;9.926;2024-03-06T10:51:51;7.80;99.90
17954;DHT22;9102;53.548;9.926;2024-03-06T10:54:19;7.80;99.90
17954;DHT22;9102;53.548;9.926;2024-03-06T10:56:50;7.90;99.90
17954;DHT22;9102;53.548;9.926;2024-03-06T10:59:19;7.80;99.90
17954;DHT22;9102;53.548;9.926;2024-03-06T11:01:46;7.80;99.90
17954;DHT22;9102;53.548;9.926;2024-03-06T11:04:13;7.80;99.90
17954;DHT22;9102;53.548;9.926;2024-03-06T11:06:41;7.60;99.90
17954;DHT22;9102;53.548;9.926;2024-03-06T11:09:08;7.80;99.90
17954;DHT22;9102;53.548;9.926;2024-03-06T11:11:49;8.00;99.90
17954;DHT22;9102;53.548;9.926;2024-03-06T11:14:17;8.30;99.90
17954;DHT22;9102;53.548;9.926;2024-03-06T11:16:58;8.30;99.90
17954;DHT22;9102;53.548;9.926;2024-03-06T11:19:26;8.20;99.90
17954;DHT22;9102;53.548;9.926;2024-03-06T11:21:54;8.50;99.90
17954;DHT22;9102;53.548;9.926;2024-03-06T11:24:22;8.60;99.90
17954;DHT22;9102;53.548;9.926;2024-03-06T11:26:55;8.50;99.90
17954;DHT22;9102;53.548;9.926;2024-03-06T11:29:23;8.60;99.90
17954;DHT22;9102;53.548;9.926;2024-03-06T11:32:03;8.60;99.90
17954;DHT22;9102;53.548;9.926;2024-03-06T11:34:33;8.50;99.90
17954;DHT22;9102;53.548;9.926;2024-03-06T11:37:02;8.50;99.90
17954;DHT22;9102;53.548;9.926;2024-03-06T11:39:33;8.60;99.90
17954;DHT22;9102;53.548;9.926;2024-03-06T11:42:04;8.50;99.90
17954;DHT22;9102;53.548;9.926;2024-03-06T11:44:52;8.50;99.90
17954;DHT22;9102;53.548;9.926;2024-03-06T11:47:20;8.70;99.90
17954;DHT22;9102;53.548;9.926;2024-03-06T11:49:47;8.50;99.90
17954;DHT22;9102;53.548;9.926;2024-03-06T11:52:14;8.60;99.90
17954;DHT22;9102;53.548;9.926;2024-03-06T11:54:41;8.60;99.90
17954;DHT22;9102;53.548;9.926;2024-03-06T11:57:10;8.60;99.90
17954;DHT22;9102;53.548;9.926;2024-03-06T11:59:38;8.80;99.90
17954;DHT22;9102;53.548;9.926;2024-03-06T12:02:05;8.90;99.90
17954;DHT22;9102;53.548;9.926;2024-03-06T12:04:34;8.90;99.90
17954;DHT22;9102;53.548;9.926;2024-03-06T12:07:03;8.90;99.90
17954;DHT22;9102;53.548;9.926;2024-03-06T12:09:34;8.90;99.90
17954;DHT22;9102;53.548;9.926;2024-03-06T12:12:01;9.00;99.90
17954;DHT22;9102;53.548;9.926;2024-03-06T12:14:30;9.10;99.90
17954;DHT22;9102;53.548;9.926;2024-03-06T12:16:58;9.00;99.90
17954;DHT22;9102;53.548;9.926;2024-03-06T12:19:26;9.00;99.90
17954;DHT22;9102;53.548;9.926;2024-03-06T12:21:53;9.20;99.90
17954;DHT22;9102;53.548;9.926;2024-03-06T12:24:20;9.30;99.90
17954;DHT22;9102;53.548;9.926;2024-03-06T12:26:59;9.30;99.90
17954;DHT22;9102;53.548;9.926;2024-03-06T12:29:28;9.30;99.90
17954;DHT22;9102;53.548;9.926;2024-03-06T12:31:57;9.30;99.90
17954;DHT22;9102;53.548;9.926;2024-03-06T12:34:24;9.60;99.90
17954;DHT22;9102;53.548;9.926;2024-03-06T12:36:51;9.80;99.90
17954;DHT22;9102;53.548;9.926;2024-03-06T12:39:18;10.00;97.70
17954;DHT22;9102;53.548;9.926;2024-03-06T12:41:48;10.20;91.90
17954;DHT22;9102;53.548;9.926;2024-03-06T12:44:15;10.30;92.20
17954;DHT22;9102;53.548;9.926;2024-03-06T12:46:45;10.10;93.30
17954;DHT22;9102;53.548;9.926;2024-03-06T12:49:13;10.30;91.40
17954;DHT22;9102;53.548;9.926;2024-03-06T12:51:40;10.70;81.00
17954;DHT22;9102;53.548;9.926;2024-03-06T12:54:07;10.70;76.30
17954;DHT22;9102;53.548;9.926;2024-03-06T12:56:35;10.60;77.10
17954;DHT22;9102;53.548;9.926;2024-03-06T12:59:02;10.50;75.60
17954;DHT22;9102;53.548;9.926;2024-03-06T13:01:30;10.30;79.40
17954;DHT22;9102;53.548;9.926;2024-03-06T13:03:59;10.40;79.60
17954;DHT22;9102;53.548;9.926;2024-03-06T13:06:27;10.30;77.00
17954;DHT22;9102;53.548;9.926;2024-03-06T13:08:56;10.10;87.60
17954;DHT22;9102;53.548;9.926;2024-03-06T13:11:23;10.10;87.60
17954;DHT22;9102;53.548;9.926;2024-03-06T13:13:50;9.90;87.30
17954;DHT22;9102;53.548;9.926;2024-03-06T13:16:18;9.70;94.40
17954;DHT22;9102;53.548;9.926;2024-03-06T13:18:45;9.90;94.50
17954;DHT22;9102;53.548;9.926;2024-03-06T13:21:12;10.10;94.40
17954;DHT22;9102;53.548;9.926;2024-03-06T13:23:40;10.00;92.50
17954;DHT22;9102;53.548;9.926;2024-03-06T13:26:07;9.80;94.00
17954;DHT22;9102;53.548;9.926;2024-03-06T13:28:34;9.90;96.30
17954;DHT22;9102;53.548;9.926;2024-03-06T13:31:01;10.00;96.50
17954;DHT22;9102;53.548;9.926;2024-03-06T13:33:28;10.00;97.70
17954;DHT22;9102;53.548;9.926;2024-03-06T13:35:55;10.00;93.90
17954;DHT22;9102;53.548;9.926;2024-03-06T13:38:22;9.90;94.30
17954;DHT22;9102;53.548;9.926;2024-03-06T13:40:50;10.00;94.00
17954;DHT22;9102;53.548;9.926;2024-03-06T13:43:17;10.00;95.80
17954;DHT22;9102;53.548;9.926;2024-03-06T13:45:49;9.90;98.20
17954;DHT22;9102;53.548;9.926;2024-03-06T13:48:15;9.90;95.40
17954;DHT22;9102;53.548;9.926;2024-03-06T13:50:43;10.00;95.00
17954;DHT22;9102;53.548;9.926;2024-03-06T13:53:09;9.90;93.60
17954;DHT22;9102;53.548;9.926;2024-03-06T13:55:36;10.00;93.20
17954;DHT22;9102;53.548;9.926;2024-03-06T13:58:04;10.20;91.00
17954;DHT22;9102;53.548;9.926;2024-03-06T14:00:32;10.20;83.60
17954;DHT22;9102;53.548;9.926;2024-03-06T14:03:00;10.30;82.20
17954;DHT22;9102;53.548;9.926;2024-03-06T14:05:27;10.20;88.10
17954;DHT22;9102;53.548;9.926;2024-03-06T14:07:54;10.30;82.90
17954;DHT22;9102;53.548;9.926;2024-03-06T14:10:22;10.20;81.40
17954;DHT22;9102;53.548;9.926;2024-03-06T14:12:50;10.30;85.20
17954;DHT22;9102;53.548;9.926;2024-03-06T14:15:19;10.30;77.70
17954;DHT22;9102;53.548;9.926;2024-03-06T14:17:48;10.20;77.10
17954;DHT22;9102;53.548;9.926;2024-03-06T14:20:14;10.00;81.20
17954;DHT22;9102;53.548;9.926;2024-03-06T14:22:42;9.90;81.10
17954;DHT22;9102;53.548;9.926;2024-03-06T14:25:09;9.70;85.60
17954;DHT22;9102;53.548;9.926;2024-03-06T14:27:37;9.60;88.70
17954;DHT22;9102;53.548;9.926;2024-03-06T14:30:05;9.40;93.30
17954;DHT22;9102;53.548;9.926;2024-03-06T14:32:34;9.30;97.10
17954;DHT22;9102;53.548;9.926;2024-03-06T14:35:02;9.20;99.40
17954;DHT22;9102;53.548;9.926;2024-03-06T14:37:29;9.20;99.90
17954;DHT22;9102;53.548;9.926;2024-03-06T14:39:56;9.10;99.90
17954;DHT22;9102;53.548;9.926;2024-03-06T14:42:23;8.90;99.90
17954;DHT22;9102;53.548;9.926;2024-03-06T14:44:50;8.60;99.90
17954;DHT22;9102;53.548;9.926;2024-03-06T14:47:17;8.60;99.90
17954;DHT22;9102;53.548;9.926;2024-03-06T14:49:45;8.60;99.90
17954;DHT22;9102;53.548;9.926;2024-03-06T14:52:12;8.60;99.90
17954;DHT22;9102;53.548;9.926;2024-03-06T14:54:39;8.70;99.90
17954;DHT22;9102;53.548;9.926;2024-03-06T14:57:06;8.70;99.90
17954;DHT22;9102;53.548;9.926;2024-03-06T14:59:33;8.70;99.90
17954;DHT22;9102;53.548;9.926;2024-03-06T15:02:01;8.70;99.90
17954;DHT22;9102;53.548;9.926;2024-03-06T15:04:29;8.70;99.90
17954;DHT22;9102;53.548;9.926;2024-03-06T15:06:57;8.70;99.90
17954;DHT22;9102;53.548;9.926;2024-03-06T15:09:25;8.60;99.90
17954;DHT22;9102;53.548;9.926;2024-03-06T15:11:52;8.60;99.90
17954;DHT22;9102;53.548;9.926;2024-03-06T15:14:19;8.60;99.90
17954;DHT22;9102;53.548;9.926;2024-03-06T15:16:46;8.60;99.90
17954;DHT22;9102;53.548;9.926;2024-03-06T15:19:14;8.70;99.90
17954;DHT22;9102;53.548;9.926;2024-03-06T15:21:42;8.80;99.90
17954;DHT22;9102;53.548;9.926;2024-03-06T15:24:11;8.60;99.90
17954;DHT22;9102;53.548;9.926;2024-03-06T15:26:37;8.70;99.90
17954;DHT22;9102;53.548;9.926;2024-03-06T15:29:04;8.50;99.90
17954;DHT22;9102;53.548;9.926;2024-03-06T15:31:32;8.50;99.90
17954;DHT22;9102;53.548;9.926;2024-03-06T15:33:58;8.50;99.90
17954;DHT22;9102;53.548;9.926;2024-03-06T15:36:25;8.40;99.90
17954;DHT22;9102;53.548;9.926;2024-03-06T15:38:52;8.30;99.90
17954;DHT22;9102;53.548;9.926;2024-03-06T15:41:23;8.30;99.90
17954;DHT22;9102;53.548;9.926;2024-03-06T15:43:50;8.30;99.90
17954;DHT22;9102;53.548;9.926;2024-03-06T15:46:17;8.30;99.90
17954;DHT22;9102;53.548;9.926;2024-03-06T15:48:44;8.30;99.90
17954;DHT22;9102;53.548;9.926;2024-03-06T15:51:11;8.30;99.90
17954;DHT22;9102;53.548;9.926;2024-03-06T15:53:39;8.20;99.90
17954;DHT22;9102;53.548;9.926;2024-03-06T15:56:06;8.20;99.90
17954;DHT22;9102;53.548;9.926;2024-03-06T15:58:35;8.20;99.90
17954;DHT22;9102;53.548;9.926;2024-03-06T16:01:02;8.10;99.90
17954;DHT22;9102;53.548;9.926;2024-03-06T16:03:28;8.10;99.90